sensor_id;sensor_type;location;lat;lon;timestamp;temperature;humidity
16267;DHT22;8241;48.786;9.250;2022-11-20T00:01:43;6.80;99.90
16267;DHT22;8241;48.786;9.250;2022-11-20T00:04:10;6.70;99.90
16267;DHT22;8241;48.786;9.250;2022-11-20T00:06:37;6.70;99.90
16267;DHT22;8241;48.786;9.250;2022-11-20T00:09:11;6.70;99.90
16267;DHT22;8241;48.786;9.250;2022-11-20T00:11:45;6.60;99.90
16267;DHT22;8241;48.786;9.250;2022-11-20T00:14:13;6.60;99.90
16267;DHT22;8241;48.786;9.250;2022-11-20T00:16:42;6.60;99.90
16267;DHT22;8241;48.786;9.250;2022-11-20T00:19:09;6.60;99.90
16267;DHT22;8241;48.786;9.250;2022-11-20T00:21:40;6.60;99.90
16267;DHT22;8241;48.786;9.250;2022-11-20T00:24:15;6.70;99.90
16267;DHT22;8241;48.786;9.250;2022-11-20T00:26:48;6.70;99.90
16267;DHT22;8241;48.786;9.250;2022-11-20T00:29:15;6.60;99.90
16267;DHT22;8241;48.786;9.250;2022-11-20T00:31:42;6.70;99.90
16267;DHT22;8241;48.786;9.250;2022-11-20T00:34:12;6.70;99.90
16267;DHT22;8241;48.786;9.250;2022-11-20T00:36:39;6.70;99.90
16267;DHT22;8241;48.786;9.250;2022-11-20T00:39:07;6.60;99.90
16267;DHT22;8241;48.786;9.250;2022-11-20T00:41:38;6.60;99.90
16267;DHT22;8241;48.786;9.250;2022-11-20T00:44:05;6.70;99.90
16267;DHT22;8241;48.786;9.250;2022-11-20T00:46:33;6.70;99.90
16267;DHT22;8241;48.786;9.250;2022-11-20T00:49:02;6.70;99.90
16267;DHT22;8241;48.786;9.250;2022-11-20T00:51:30;6.70;99.90
16267;DHT22;8241;48.786;9.250;2022-11-20T00:53:59;6.80;99.90
16267;DHT22;8241;48.786;9.250;2022-11-20T00:56:30;6.80;99.90
16267;DHT22;8241;48.786;9.250;2022-11-20T00:59:02;6.80;99.90
16267;DHT22;8241;48.786;9.250;2022-11-20T01:01:30;6.80;99.90
16267;DHT22;8241;48.786;9.250;2022-11-20T01:03:58;6.90;99.90
16267;DHT22;8241;48.786;9.250;2022-11-20T01:06:28;6.90;99.90
16267;DHT22;8241;48.786;9.250;2022-11-20T01:09:00;7.00;99.90
16267;DHT22;8241;48.786;9.250;2022-11-20T01:11:28;7.10;99.90
16267;DHT22;8241;48.786;9.250;2022-11-20T01:14:00;7.00;99.90
16267;DHT22;8241;48.786;9.250;2022-11-20T01:16:30;7.20;99.90
16267;DHT22;8241;48.786;9.250;2022-11-20T01:19:01;7.10;99.90
16267;DHT22;8241;48.786;9.250;2022-11-20T01:21:32;7.10;99.90
16267;DHT22;8241;48.786;9.250;2022-11-20T01:24:00;7.00;99.90
16267;DHT22;8241;48.786;9.250;2022-11-20T01:26:33;7.00;99.90
16267;DHT22;8241;48.786;9.250;2022-11-20T01:29:03;7.00;99.90
16267;DHT22;8241;48.786;9.250;2022-11-20T01:31:35;6.90;99.90
16267;DHT22;8241;48.786;9.250;2022-11-20T01:34:03;6.80;99.90
16267;DHT22;8241;48.786;9.250;2022-11-20T01:36:31;6.80;99.90
16267;DHT22;8241;48.786;9.250;2022-11-20T01:39:04;6.80;99.90
16267;DHT22;8241;48.786;9.250;2022-11-20T01:41:35;6.90;99.90
16267;DHT22;8241;48.786;9.250;2022-11-20T01:44:54;6.90;99.90
16267;DHT22;8241;48.786;9.250;2022-11-20T01:47:29;7.10;99.90
16267;DHT22;8241;48.786;9.250;2022-11-20T01:50:01;7.20;99.90
16267;DHT22;8241;48.786;9.250;2022-11-20T01:52:36;7.30;99.90
16267;DHT22;8241;48.786;9.250;2022-11-20T01:55:07;7.20;99.90
16267;DHT22;8241;48.786;9.250;2022-11-20T01:57:38;7.00;99.90
16267;DHT22;8241;48.786;9.250;2022-11-20T02:00:08;7.00;99.90
16267;DHT22;8241;48.786;9.250;2022-11-20T02:02:40;7.10;99.90
16267;DHT22;8241;48.786;9.250;2022-11-20T02:05:18;7.00;99.90
16267;DHT22;8241;48.786;9.250;2022-11-20T02:07:49;6.90;99.90
16267;DHT22;8241;48.786;9.250;2022-11-20T02:10:16;7.00;99.90
16267;DHT22;8241;48.786;9.250;2022-11-20T02:12:43;6.90;99.90
16267;DHT22;8241;48.786;9.250;2022-11-20T02:15:28;6.80;99.90
16267;DHT22;8241;48.786;9.250;2022-11-20T02:17:57;6.90;99.90
16267;DHT22;8241;48.786;9.250;2022-11-20T02:20:24;6.80;99.90
16267;DHT22;8241;48.786;9.250;2022-11-20T02:22:56;6.90;99.90
16267;DHT22;8241;48.786;9.250;2022-11-20T02:25:27;6.90;99.90
16267;DHT22;8241;48.786;9.250;2022-11-20T02:27:54;6.80;99.90
16267;DHT22;8241;48.786;9.250;2022-11-20T02:30:21;6.80;99.90
16267;DHT22;8241;48.786;9.250;2022-11-20T02:32:49;6.90;99.90
16267;DHT22;8241;48.786;9.250;2022-11-20T02:35:41;6.90;99.90
16267;DHT22;8241;48.786;9.250;2022-11-20T02:38:09;6.90;99.90
16267;DHT22;8241;48.786;9.250;2022-11-20T02:40:38;6.80;99.90
16267;DHT22;8241;48.786;9.250;2022-11-20T02:43:05;6.70;99.90
16267;DHT22;8241;48.786;9.250;2022-11-20T02:45:32;6.70;99.90
16267;DHT22;8241;48.786;9.250;2022-11-20T02:47:59;6.70;99.90
16267;DHT22;8241;48.786;9.250;2022-11-20T02:50:27;6.70;99.90
16267;DHT22;8241;48.786;9.250;2022-11-20T02:52:54;6.80;99.90
16267;DHT22;8241;48.786;9.250;2022-11-20T02:55:23;6.80;99.90
16267;DHT22;8241;48.786;9.250;2022-11-20T02:57:51;6.80;99.90
16267;DHT22;8241;48.786;9.250;2022-11-20T03:00:21;6.80;99.90
16267;DHT22;8241;48.786;9.250;2022-11-20T03:02:48;6.90;99.90
16267;DHT22;8241;48.786;9.250;2022-11-20T03:05:15;7.10;99.90
16267;DHT22;8241;48.786;9.250;2022-11-20T03:07:43;7.20;99.90
16267;DHT22;8241;48.786;9.250;2022-11-20T03:10:10;7.30;99.90
16267;DHT22;8241;48.786;9.250;2022-11-20T03:12:41;7.30;99.90
16267;DHT22;8241;48.786;9.250;2022-11-20T03:15:10;7.40;99.90
16267;DHT22;8241;48.786;9.250;2022-11-20T03:17:37;7.10;99.90
16267;DHT22;8241;48.786;9.250;2022-11-20T03:20:05;6.90;99.90
16267;DHT22;8241;48.786;9.250;2022-11-20T03:22:32;6.70;99.90
16267;DHT22;8241;48.786;9.250;2022-11-20T03:24:59;6.60;99.90
16267;DHT22;8241;48.786;9.250;2022-11-20T03:27:32;6.60;99.90
16267;DHT22;8241;48.786;9.250;2022-11-20T03:29:59;6.60;99.90
16267;DHT22;8241;48.786;9.250;2022-11-20T03:32:30;6.60;99.90
16267;DHT22;8241;48.786;9.250;2022-11-20T03:34:57;6.60;99.90
16267;DHT22;8241;48.786;9.250;2022-11-20T03:37:25;6.60;99.90
16267;DHT22;8241;48.786;9.250;2022-11-20T03:39:52;6.60;99.90
16267;DHT22;8241;48.786;9.250;2022-11-20T03:42:20;6.60;99.90
16267;DHT22;8241;48.786;9.250;2022-11-20T03:45:06;6.60;99.90
16267;DHT22;8241;48.786;9.250;2022-11-20T03:47:38;6.60;99.90
16267;DHT22;8241;48.786;9.250;2022-11-20T03:50:09;6.50;99.90
16267;DHT22;8241;48.786;9.250;2022-11-20T03:52:37;6.50;99.90
16267;DHT22;8241;48.786;9.250;2022-11-20T03:55:06;6.50;99.90
16267;DHT22;8241;48.786;9.250;2022-11-20T03:57:33;6.40;99.90
16267;DHT22;8241;48.786;9.250;2022-11-20T04:00:00;6.40;99.90
16267;DHT22;8241;48.786;9.250;2022-11-20T04:02:35;6.40;99.90
16267;DHT22;8241;48.786;9.250;2022-11-20T04:05:05;6.30;99.90
16267;DHT22;8241;48.786;9.250;2022-11-20T04:07:36;6.30;99.90
16267;DHT22;8241;48.786;9.250;2022-11-20T04:10:03;6.40;99.90
16267;DHT22;8241;48.786;9.250;2022-11-20T04:12:32;6.30;99.90
16267;DHT22;8241;48.786;9.250;2022-11-20T04:15:00;6.30;99.90
16267;DHT22;8241;48.786;9.250;2022-11-20T04:17:27;6.30;99.90
16267;DHT22;8241;48.786;9.250;2022-11-20T04:19:56;6.30;99.90
16267;DHT22;8241;48.786;9.250;2022-11-20T04:22:24;6.30;99.90
16267;DHT22;8241;48.786;9.250;2022-11-20T04:24:55;6.30;99.90
16267;DHT22;8241;48.786;9.250;2022-11-20T04:27:22;6.30;99.90
16267;DHT22;8241;48.786;9.250;2022-11-20T04:29:49;6.30;99.90
16267;DHT22;8241;48.786;9.250;2022-11-20T04:32:16;6.30;99.90
16267;DHT22;8241;48.786;9.250;2022-11-20T04:34:43;6.30;99.90
16267;DHT22;8241;48.786;9.250;2022-11-20T04:37:10;6.20;99.90
16267;DHT22;8241;48.786;9.250;2022-11-20T04:39:39;6.30;99.90
16267;DHT22;8241;48.786;9.250;2022-11-20T04:42:08;6.30;99.90
16267;DHT22;8241;48.786;9.250;2022-11-20T04:44:53;6.30;99.90
16267;DHT22;8241;48.786;9.250;2022-11-20T04:47:20;6.30;99.90
16267;DHT22;8241;48.786;9.250;2022-11-20T04:49:57;6.40;99.90
16267;DHT22;8241;48.786;9.250;2022-11-20T04:52:24;6.40;99.90
16267;DHT22;8241;48.786;9.250;2022-11-20T04:54:52;6.30;99.90
16267;DHT22;8241;48.786;9.250;2022-11-20T04:57:20;6.30;99.90
16267;DHT22;8241;48.786;9.250;2022-11-20T04:59:53;6.30;99.90
16267;DHT22;8241;48.786;9.250;2022-11-20T05:02:20;6.30;99.90
16267;DHT22;8241;48.786;9.250;2022-11-20T05:04:47;6.20;99.90
16267;DHT22;8241;48.786;9.250;2022-11-20T05:07:14;6.30;99.90
16267;DHT22;8241;48.786;9.250;2022-11-20T05:09:41;6.30;99.90
16267;DHT22;8241;48.786;9.250;2022-11-20T05:12:10;6.30;99.90
16267;DHT22;8241;48.786;9.250;2022-11-20T05:14:39;6.40;99.90
16267;DHT22;8241;48.786;9.250;2022-11-20T05:17:06;6.50;99.90
16267;DHT22;8241;48.786;9.250;2022-11-20T05:19:33;6.50;99.90
16267;DHT22;8241;48.786;9.250;2022-11-20T05:22:00;6.50;99.90
16267;DHT22;8241;48.786;9.250;2022-11-20T05:24:27;6.50;99.90
16267;DHT22;8241;48.786;9.250;2022-11-20T05:26:54;6.40;99.90
16267;DHT22;8241;48.786;9.250;2022-11-20T05:29:22;6.40;99.90
16267;DHT22;8241;48.786;9.250;2022-11-20T05:31:49;6.40;99.90
16267;DHT22;8241;48.786;9.250;2022-11-20T05:34:18;6.40;99.90
16267;DHT22;8241;48.786;9.250;2022-11-20T05:36:45;6.40;99.90
16267;DHT22;8241;48.786;9.250;2022-11-20T05:39:20;6.50;99.90
16267;DHT22;8241;48.786;9.250;2022-11-20T05:41:46;6.40;99.90
16267;DHT22;8241;48.786;9.250;2022-11-20T05:44:35;6.40;99.90
16267;DHT22;8241;48.786;9.250;2022-11-20T05:47:05;6.50;99.90
16267;DHT22;8241;48.786;9.250;2022-11-20T05:49:32;6.50;99.90
16267;DHT22;8241;48.786;9.250;2022-11-20T05:51:59;6.40;99.90
16267;DHT22;8241;48.786;9.250;2022-11-20T05:54:26;6.40;99.90
16267;DHT22;8241;48.786;9.250;2022-11-20T05:56:56;6.40;99.90
16267;DHT22;8241;48.786;9.250;2022-11-20T05:59:23;6.50;99.90
16267;DHT22;8241;48.786;9.250;2022-11-20T06:01:52;6.50;99.90
16267;DHT22;8241;48.786;9.250;2022-11-20T06:04:20;6.50;99.90
16267;DHT22;8241;48.786;9.250;2022-11-20T06:06:47;6.50;99.90
16267;DHT22;8241;48.786;9.250;2022-11-20T06:09:14;6.50;99.90
16267;DHT22;8241;48.786;9.250;2022-11-20T06:11:44;6.60;99.90
16267;DHT22;8241;48.786;9.250;2022-11-20T06:14:12;6.60;99.90
16267;DHT22;8241;48.786;9.250;2022-11-20T06:16:40;6.60;99.90
16267;DHT22;8241;48.786;9.250;2022-11-20T06:19:12;6.60;99.90
16267;DHT22;8241;48.786;9.250;2022-11-20T06:21:40;6.60;99.90
16267;DHT22;8241;48.786;9.250;2022-11-20T06:24:10;6.70;99.90
16267;DHT22;8241;48.786;9.250;2022-11-20T06:26:37;6.60;99.90
16267;DHT22;8241;48.786;9.250;2022-11-20T06:29:04;6.60;99.90
16267;DHT22;8241;48.786;9.250;2022-11-20T06:31:32;6.60;99.90
16267;DHT22;8241;48.786;9.250;2022-11-20T06:34:01;6.60;99.90
16267;DHT22;8241;48.786;9.250;2022-11-20T06:36:32;6.60;99.90
16267;DHT22;8241;48.786;9.250;2022-11-20T06:39:02;6.60;99.90
16267;DHT22;8241;48.786;9.250;2022-11-20T06:41:29;6.60;99.90
16267;DHT22;8241;48.786;9.250;2022-11-20T06:43:57;6.70;99.90
16267;DHT22;8241;48.786;9.250;2022-11-20T06:46:24;6.60;99.90
16267;DHT22;8241;48.786;9.250;2022-11-20T06:48:51;6.80;99.90
16267;DHT22;8241;48.786;9.250;2022-11-20T06:51:19;6.80;99.90
16267;DHT22;8241;48.786;9.250;2022-11-20T06:53:50;6.80;99.90
16267;DHT22;8241;48.786;9.250;2022-11-20T06:56:17;6.80;99.90
16267;DHT22;8241;48.786;9.250;2022-11-20T06:58:44;6.80;99.90
16267;DHT22;8241;48.786;9.250;2022-11-20T07:01:13;6.80;99.90
16267;DHT22;8241;48.786;9.250;2022-11-20T07:03:40;6.80;99.90
16267;DHT22;8241;48.786;9.250;2022-11-20T07:06:08;6.80;99.90
16267;DHT22;8241;48.786;9.250;2022-11-20T07:08:35;6.80;99.90
16267;DHT22;8241;48.786;9.250;2022-11-20T07:11:06;6.80;99.90
16267;DHT22;8241;48.786;9.250;2022-11-20T07:13:33;6.70;99.90
16267;DHT22;8241;48.786;9.250;2022-11-20T07:16:03;6.80;99.90
16267;DHT22;8241;48.786;9.250;2022-11-20T07:18:31;6.80;99.90
16267;DHT22;8241;48.786;9.250;2022-11-20T07:21:00;6.80;99.90
16267;DHT22;8241;48.786;9.250;2022-11-20T07:23:27;6.80;99.90
16267;DHT22;8241;48.786;9.250;2022-11-20T07:25:54;6.80;99.90
16267;DHT22;8241;48.786;9.250;2022-11-20T07:28:22;6.80;99.90
16267;DHT22;8241;48.786;9.250;2022-11-20T07:30:51;6.80;99.90
16267;DHT22;8241;48.786;9.250;2022-11-20T07:33:18;6.90;99.90
16267;DHT22;8241;48.786;9.250;2022-11-20T07:35:45;6.80;99.90
16267;DHT22;8241;48.786;9.250;2022-11-20T07:38:12;6.80;99.90
16267;DHT22;8241;48.786;9.250;2022-11-20T07:40:40;6.80;99.90
16267;DHT22;8241;48.786;9.250;2022-11-20T07:43:08;6.80;99.90
16267;DHT22;8241;48.786;9.250;2022-11-20T07:45:36;6.90;99.90
16267;DHT22;8241;48.786;9.250;2022-11-20T07:48:04;6.80;99.90
16267;DHT22;8241;48.786;9.250;2022-11-20T07:50:32;6.90;99.90
16267;DHT22;8241;48.786;9.250;2022-11-20T07:53:05;6.80;99.90
16267;DHT22;8241;48.786;9.250;2022-11-20T07:55:32;7.00;99.90
16267;DHT22;8241;48.786;9.250;2022-11-20T07:58:00;7.00;99.90
16267;DHT22;8241;48.786;9.250;2022-11-20T08:00:28;7.10;99.90
16267;DHT22;8241;48.786;9.250;2022-11-20T08:02:58;7.10;99.90
16267;DHT22;8241;48.786;9.250;2022-11-20T08:05:25;7.10;99.90
16267;DHT22;8241;48.786;9.250;2022-11-20T08:07:53;7.10;99.90
16267;DHT22;8241;48.786;9.250;2022-11-20T08:10:20;7.20;99.90
16267;DHT22;8241;48.786;9.250;2022-11-20T08:12:49;7.20;99.90
16267;DHT22;8241;48.786;9.250;2022-11-20T08:15:38;7.10;99.90
16267;DHT22;8241;48.786;9.250;2022-11-20T08:18:08;7.20;99.90
16267;DHT22;8241;48.786;9.250;2022-11-20T08:20:37;7.20;99.90
16267;DHT22;8241;48.786;9.250;2022-11-20T08:23:07;7.20;99.90
16267;DHT22;8241;48.786;9.250;2022-11-20T08:25:34;7.20;99.90
16267;DHT22;8241;48.786;9.250;2022-11-20T08:28:04;7.20;99.90
16267;DHT22;8241;48.786;9.250;2022-11-20T08:30:31;7.30;99.90
16267;DHT22;8241;48.786;9.250;2022-11-20T08:33:02;7.40;99.90
16267;DHT22;8241;48.786;9.250;2022-11-20T08:35:32;7.40;99.90
16267;DHT22;8241;48.786;9.250;2022-11-20T08:38:00;7.40;99.90
16267;DHT22;8241;48.786;9.250;2022-11-20T08:40:28;7.40;99.90
16267;DHT22;8241;48.786;9.250;2022-11-20T08:42:55;7.40;99.90
16267;DHT22;8241;48.786;9.250;2022-11-20T08:45:22;7.40;99.90
16267;DHT22;8241;48.786;9.250;2022-11-20T08:47:49;7.40;99.90
16267;DHT22;8241;48.786;9.250;2022-11-20T08:50:18;7.50;99.90
16267;DHT22;8241;48.786;9.250;2022-11-20T08:52:47;7.50;99.90
16267;DHT22;8241;48.786;9.250;2022-11-20T08:55:14;7.50;99.90
16267;DHT22;8241;48.786;9.250;2022-11-20T08:57:42;7.60;99.90
16267;DHT22;8241;48.786;9.250;2022-11-20T09:00:12;7.80;99.90
16267;DHT22;8241;48.786;9.250;2022-11-20T09:02:40;7.90;99.90
16267;DHT22;8241;48.786;9.250;2022-11-20T09:05:08;8.00;99.90
16267;DHT22;8241;48.786;9.250;2022-11-20T09:07:34;8.10;99.90
16267;DHT22;8241;48.786;9.250;2022-11-20T09:10:05;8.20;99.90
16267;DHT22;8241;48.786;9.250;2022-11-20T09:12:39;8.20;99.90
16267;DHT22;8241;48.786;9.250;2022-11-20T09:15:07;8.10;99.90
16267;DHT22;8241;48.786;9.250;2022-11-20T09:17:35;8.10;99.90
16267;DHT22;8241;48.786;9.250;2022-11-20T09:20:02;8.10;99.90
16267;DHT22;8241;48.786;9.250;2022-11-20T09:22:29;8.10;99.90
16267;DHT22;8241;48.786;9.250;2022-11-20T09:25:01;8.20;99.90
16267;DHT22;8241;48.786;9.250;2022-11-20T09:27:30;8.20;99.90
16267;DHT22;8241;48.786;9.250;2022-11-20T09:30:03;8.30;99.90
16267;DHT22;8241;48.786;9.250;2022-11-20T09:32:32;8.30;99.90
16267;DHT22;8241;48.786;9.250;2022-11-20T09:34:59;8.30;99.90
16267;DHT22;8241;48.786;9.250;2022-11-20T09:37:26;8.40;99.90
16267;DHT22;8241;48.786;9.250;2022-11-20T09:39:55;8.40;99.90
16267;DHT22;8241;48.786;9.250;2022-11-20T09:42:36;8.40;99.90
16267;DHT22;8241;48.786;9.250;2022-11-20T09:45:38;8.50;99.90
16267;DHT22;8241;48.786;9.250;2022-11-20T09:48:25;8.50;99.90
16267;DHT22;8241;48.786;9.250;2022-11-20T09:51:06;8.40;99.90
16267;DHT22;8241;48.786;9.250;2022-11-20T09:53:42;8.40;99.90
16267;DHT22;8241;48.786;9.250;2022-11-20T09:56:14;8.40;99.90
16267;DHT22;8241;48.786;9.250;2022-11-20T09:58:47;8.40;99.90
16267;DHT22;8241;48.786;9.250;2022-11-20T10:01:23;8.40;99.90
16267;DHT22;8241;48.786;9.250;2022-11-20T10:03:57;8.40;99.90
16267;DHT22;8241;48.786;9.250;2022-11-20T10:06:31;8.40;99.90
16267;DHT22;8241;48.786;9.250;2022-11-20T10:09:06;8.40;99.90
16267;DHT22;8241;48.786;9.250;2022-11-20T10:11:48;8.40;99.90
16267;DHT22;8241;48.786;9.250;2022-11-20T10:14:33;8.40;99.90
16267;DHT22;8241;48.786;9.250;2022-11-20T10:17:10;8.50;99.90
16267;DHT22;8241;48.786;9.250;2022-11-20T10:19:55;8.40;99.90
16267;DHT22;8241;48.786;9.250;2022-11-20T10:22:35;8.40;99.90
16267;DHT22;8241;48.786;9.250;2022-11-20T10:25:18;8.40;99.90
16267;DHT22;8241;48.786;9.250;2022-11-20T10:28:15;8.40;99.90
16267;DHT22;8241;48.786;9.250;2022-11-20T10:30:50;8.40;99.90
16267;DHT22;8241;48.786;9.250;2022-11-20T10:33:30;8.30;99.90
16267;DHT22;8241;48.786;9.250;2022-11-20T10:36:11;8.30;99.90
16267;DHT22;8241;48.786;9.250;2022-11-20T10:38:44;8.20;99.90
16267;DHT22;8241;48.786;9.250;2022-11-20T10:41:20;8.20;99.90
16267;DHT22;8241;48.786;9.250;2022-11-20T10:43:56;8.10;99.90
16267;DHT22;8241;48.786;9.250;2022-11-20T10:46:35;8.10;99.90
16267;DHT22;8241;48.786;9.250;2022-11-20T10:49:11;8.00;99.90
16267;DHT22;8241;48.786;9.250;2022-11-20T10:51:52;7.90;99.90
16267;DHT22;8241;48.786;9.250;2022-11-20T10:54:31;8.00;99.90
16267;DHT22;8241;48.786;9.250;2022-11-20T10:57:04;8.00;99.90
16267;DHT22;8241;48.786;9.250;2022-11-20T10:59:45;8.00;99.90
16267;DHT22;8241;48.786;9.250;2022-11-20T11:02:19;7.90;99.90
16267;DHT22;8241;48.786;9.250;2022-11-20T11:04:50;7.80;99.90
16267;DHT22;8241;48.786;9.250;2022-11-20T11:07:20;7.80;99.90
16267;DHT22;8241;48.786;9.250;2022-11-20T11:09:50;7.80;99.90
16267;DHT22;8241;48.786;9.250;2022-11-20T11:12:19;7.90;99.90
16267;DHT22;8241;48.786;9.250;2022-11-20T11:14:48;8.00;99.90
16267;DHT22;8241;48.786;9.250;2022-11-20T11:17:26;7.90;99.90
16267;DHT22;8241;48.786;9.250;2022-11-20T11:20:00;7.90;99.90
16267;DHT22;8241;48.786;9.250;2022-11-20T11:22:29;7.80;99.90
16267;DHT22;8241;48.786;9.250;2022-11-20T11:24:56;7.80;99.90
16267;DHT22;8241;48.786;9.250;2022-11-20T11:27:26;7.80;99.90
16267;DHT22;8241;48.786;9.250;2022-11-20T11:30:10;7.90;99.90
16267;DHT22;8241;48.786;9.250;2022-11-20T11:32:41;8.00;99.90
16267;DHT22;8241;48.786;9.250;2022-11-20T11:35:20;8.00;99.90
16267;DHT22;8241;48.786;9.250;2022-11-20T11:37:49;8.30;99.90
16267;DHT22;8241;48.786;9.250;2022-11-20T11:40:18;8.80;99.90
16267;DHT22;8241;48.786;9.250;2022-11-20T11:42:52;9.50;99.90
16267;DHT22;8241;48.786;9.250;2022-11-20T11:45:25;9.80;99.90
16267;DHT22;8241;48.786;9.250;2022-11-20T11:47:54;10.20;99.90
16267;DHT22;8241;48.786;9.250;2022-11-20T11:50:24;10.60;99.90
16267;DHT22;8241;48.786;9.250;2022-11-20T11:53:05;11.00;99.90
16267;DHT22;8241;48.786;9.250;2022-11-20T11:55:38;11.50;99.90
16267;DHT22;8241;48.786;9.250;2022-11-20T11:58:13;11.50;99.90
16267;DHT22;8241;48.786;9.250;2022-11-20T12:00:48;11.90;99.90
16267;DHT22;8241;48.786;9.250;2022-11-20T12:03:20;11.90;99.90
16267;DHT22;8241;48.786;9.250;2022-11-20T12:05:53;11.80;99.90
16267;DHT22;8241;48.786;9.250;2022-11-20T12:08:26;12.00;99.90
16267;DHT22;8241;48.786;9.250;2022-11-20T12:11:06;12.40;99.90
16267;DHT22;8241;48.786;9.250;2022-11-20T12:13:45;12.50;99.90
16267;DHT22;8241;48.786;9.250;2022-11-20T12:16:18;12.20;99.90
16267;DHT22;8241;48.786;9.250;2022-11-20T12:18:48;12.00;99.90
16267;DHT22;8241;48.786;9.250;2022-11-20T12:21:24;11.20;99.90
16267;DHT22;8241;48.786;9.250;2022-11-20T12:24:06;11.00;99.90
16267;DHT22;8241;48.786;9.250;2022-11-20T12:26:50;10.70;99.90
16267;DHT22;8241;48.786;9.250;2022-11-20T12:29:32;10.60;99.90
16267;DHT22;8241;48.786;9.250;2022-11-20T12:32:26;11.00;99.90
16267;DHT22;8241;48.786;9.250;2022-11-20T12:35:07;11.30;99.90
16267;DHT22;8241;48.786;9.250;2022-11-20T12:37:45;11.90;99.90
16267;DHT22;8241;48.786;9.250;2022-11-20T12:40:27;12.70;99.90
16267;DHT22;8241;48.786;9.250;2022-11-20T12:43:03;13.10;98.30
16267;DHT22;8241;48.786;9.250;2022-11-20T12:46:08;13.40;98.30
16267;DHT22;8241;48.786;9.250;2022-11-20T12:49:05;13.80;97.00
16267;DHT22;8241;48.786;9.250;2022-11-20T12:51:51;14.20;96.30
16267;DHT22;8241;48.786;9.250;2022-11-20T12:54:59;14.10;95.60
16267;DHT22;8241;48.786;9.250;2022-11-20T12:57:45;14.60;94.10
16267;DHT22;8241;48.786;9.250;2022-11-20T13:00:19;14.30;93.60
16267;DHT22;8241;48.786;9.250;2022-11-20T13:03:06;13.90;93.70
16267;DHT22;8241;48.786;9.250;2022-11-20T13:05:46;13.00;94.50
16267;DHT22;8241;48.786;9.250;2022-11-20T13:08:20;12.40;94.70
16267;DHT22;8241;48.786;9.250;2022-11-20T13:10:52;12.20;95.70
16267;DHT22;8241;48.786;9.250;2022-11-20T13:13:25;12.00;94.60
16267;DHT22;8241;48.786;9.250;2022-11-20T13:16:00;11.60;94.20
16267;DHT22;8241;48.786;9.250;2022-11-20T13:18:35;11.40;94.90
16267;DHT22;8241;48.786;9.250;2022-11-20T13:21:16;11.20;95.20
16267;DHT22;8241;48.786;9.250;2022-11-20T13:23:47;11.00;95.60
16267;DHT22;8241;48.786;9.250;2022-11-20T13:26:17;10.90;95.10
16267;DHT22;8241;48.786;9.250;2022-11-20T13:28:46;10.70;95.20
16267;DHT22;8241;48.786;9.250;2022-11-20T13:31:31;10.70;96.10
16267;DHT22;8241;48.786;9.250;2022-11-20T13:33:59;10.40;95.80
16267;DHT22;8241;48.786;9.250;2022-11-20T13:36:28;10.40;95.70
16267;DHT22;8241;48.786;9.250;2022-11-20T13:38:59;10.40;96.20
16267;DHT22;8241;48.786;9.250;2022-11-20T13:41:27;10.30;95.40
16267;DHT22;8241;48.786;9.250;2022-11-20T13:43:58;10.30;96.50
16267;DHT22;8241;48.786;9.250;2022-11-20T13:46:39;10.50;96.00
16267;DHT22;8241;48.786;9.250;2022-11-20T13:49:08;10.40;96.60
16267;DHT22;8241;48.786;9.250;2022-11-20T13:51:43;10.20;95.20
16267;DHT22;8241;48.786;9.250;2022-11-20T13:57:42;10.00;96.10
16267;DHT22;8241;48.786;9.250;2022-11-20T14:00:15;10.00;96.70
16267;DHT22;8241;48.786;9.250;2022-11-20T14:02:44;10.00;96.80
16267;DHT22;8241;48.786;9.250;2022-11-20T14:05:24;10.00;96.10
16267;DHT22;8241;48.786;9.250;2022-11-20T14:07:52;10.00;96.50
16267;DHT22;8241;48.786;9.250;2022-11-20T14:10:24;10.00;96.90
16267;DHT22;8241;48.786;9.250;2022-11-20T14:12:53;10.00;97.20
16267;DHT22;8241;48.786;9.250;2022-11-20T14:15:33;9.80;97.90
16267;DHT22;8241;48.786;9.250;2022-11-20T14:18:12;9.80;98.60
16267;DHT22;8241;48.786;9.250;2022-11-20T14:20:41;9.70;98.70
16267;DHT22;8241;48.786;9.250;2022-11-20T14:23:12;9.60;99.10
16267;DHT22;8241;48.786;9.250;2022-11-20T14:25:46;9.50;98.80
16267;DHT22;8241;48.786;9.250;2022-11-20T14:28:24;9.40;99.00
16267;DHT22;8241;48.786;9.250;2022-11-20T14:30:51;9.40;99.40
16267;DHT22;8241;48.786;9.250;2022-11-20T14:33:22;9.30;99.20
16267;DHT22;8241;48.786;9.250;2022-11-20T14:35:58;9.30;99.50
16267;DHT22;8241;48.786;9.250;2022-11-20T14:38:29;9.20;99.40
16267;DHT22;8241;48.786;9.250;2022-11-20T14:41:17;9.20;99.40
16267;DHT22;8241;48.786;9.250;2022-11-20T14:43:47;9.30;99.40
16267;DHT22;8241;48.786;9.250;2022-11-20T14:46:16;9.20;99.40
16267;DHT22;8241;48.786;9.250;2022-11-20T14:48:46;9.20;99.20
16267;DHT22;8241;48.786;9.250;2022-11-20T14:51:25;9.20;99.10
16267;DHT22;8241;48.786;9.250;2022-11-20T14:53:54;9.10;98.80
16267;DHT22;8241;48.786;9.250;2022-11-20T14:56:22;9.10;99.00
16267;DHT22;8241;48.786;9.250;2022-11-20T14:58:56;9.10;99.50
16267;DHT22;8241;48.786;9.250;2022-11-20T15:01:27;9.10;99.40
16267;DHT22;8241;48.786;9.250;2022-11-20T15:04:00;9.00;98.70
16267;DHT22;8241;48.786;9.250;2022-11-20T15:06:28;9.00;99.20
16267;DHT22;8241;48.786;9.250;2022-11-20T15:08:57;8.90;99.40
16267;DHT22;8241;48.786;9.250;2022-11-20T15:11:29;8.80;99.60
16267;DHT22;8241;48.786;9.250;2022-11-20T15:14:02;8.90;99.80
16267;DHT22;8241;48.786;9.250;2022-11-20T15:16:30;8.80;99.90
16267;DHT22;8241;48.786;9.250;2022-11-20T15:18:57;8.70;99.90
16267;DHT22;8241;48.786;9.250;2022-11-20T15:21:24;8.60;99.90
16267;DHT22;8241;48.786;9.250;2022-11-20T15:23:51;8.60;99.90
16267;DHT22;8241;48.786;9.250;2022-11-20T15:26:25;8.40;99.90
16267;DHT22;8241;48.786;9.250;2022-11-20T15:28:53;8.40;99.90
16267;DHT22;8241;48.786;9.250;2022-11-20T15:31:23;8.30;99.90
16267;DHT22;8241;48.786;9.250;2022-11-20T15:33:50;8.30;99.90
16267;DHT22;8241;48.786;9.250;2022-11-20T15:36:17;8.30;99.90
16267;DHT22;8241;48.786;9.250;2022-11-20T15:38:44;8.20;99.90
16267;DHT22;8241;48.786;9.250;2022-11-20T15:41:11;8.20;99.90
16267;DHT22;8241;48.786;9.250;2022-11-20T15:43:38;8.10;99.90
16267;DHT22;8241;48.786;9.250;2022-11-20T15:46:09;8.10;99.90
16267;DHT22;8241;48.786;9.250;2022-11-20T15:48:41;8.10;99.90
16267;DHT22;8241;48.786;9.250;2022-11-20T15:51:24;8.00;99.90
16267;DHT22;8241;48.786;9.250;2022-11-20T15:53:54;8.00;99.90
16267;DHT22;8241;48.786;9.250;2022-11-20T15:56:24;7.90;99.90
16267;DHT22;8241;48.786;9.250;2022-11-20T15:58:51;8.00;99.90
16267;DHT22;8241;48.786;9.250;2022-11-20T16:01:20;7.90;99.90
16267;DHT22;8241;48.786;9.250;2022-11-20T16:03:49;7.90;99.90
16267;DHT22;8241;48.786;9.250;2022-11-20T16:06:16;7.90;99.90
16267;DHT22;8241;48.786;9.250;2022-11-20T16:08:43;7.90;99.90
16267;DHT22;8241;48.786;9.250;2022-11-20T16:11:13;7.90;99.90
16267;DHT22;8241;48.786;9.250;2022-11-20T16:13:40;7.80;99.90
16267;DHT22;8241;48.786;9.250;2022-11-20T16:16:27;7.80;99.90
16267;DHT22;8241;48.786;9.250;2022-11-20T16:18:57;7.80;99.90
16267;DHT22;8241;48.786;9.250;2022-11-20T16:21:25;7.70;99.90
16267;DHT22;8241;48.786;9.250;2022-11-20T16:23:57;7.70;99.90
16267;DHT22;8241;48.786;9.250;2022-11-20T16:26:24;7.80;99.90
16267;DHT22;8241;48.786;9.250;2022-11-20T16:28:55;7.70;99.90
16267;DHT22;8241;48.786;9.250;2022-11-20T16:31:22;7.70;99.90